Time;durP1;ratioP1;P1;durP2;ratioP2;P2;SDS_P1;SDS_P2;PMS_P1;PMS_P2;Temp;Humidity;BMP_temperature;BMP_pressure;BME280_temperature;BME280_humidity;BME280_pressure;Samples;Min_cycle;Max_cycle;Signal;HPM_P1;HPM_P2
2022/10/23 00:01:34;;;;;;;49.97;36.28;;;13.80;99.90;;;;;;5096169;28;20094;-68
2022/10/23 00:04:05;;;;;;;51.20;34.97;;;13.80;99.90;;;;;;5076553;28;20040;-68
2022/10/23 00:06:33;;;;;;;49.50;37.15;;;13.80;99.90;;;;;;5077426;28;20169;-69
2022/10/23 00:09:01;;;;;;;46.25;34.03;;;13.80;99.90;;;;;;5095628;28;20097;-69
2022/10/23 00:11:30;;;;;;;47.72;33.42;;;13.80;99.90;;;;;;5094787;28;20128;-68
2022/10/23 00:14:01;;;;;;;41.25;31.17;;;13.80;99.90;;;;;;5078123;28;20483;-69
2022/10/23 00:16:29;;;;;;;40.92;31.55;;;13.70;99.90;;;;;;5094509;28;20477;-67
2022/10/23 00:18:56;;;;;;;39.38;28.98;;;13.70;99.90;;;;;;5095490;28;20495;-68
2022/10/23 00:21:25;;;;;;;41.38;30.08;;;13.70;99.90;;;;;;5080851;28;20460;-69
2022/10/23 00:23:53;;;;;;;44.42;31.02;;;13.70;99.90;;;;;;5057118;28;20075;-69
2022/10/23 00:26:20;;;;;;;45.33;32.08;;;13.70;99.90;;;;;;5075220;28;20075;-69
2022/10/23 00:28:50;;;;;;;42.53;32.22;;;13.70;99.90;;;;;;5075434;28;20044;-69
2022/10/23 00:31:17;;;;;;;45.80;33.17;;;13.70;99.90;;;;;;5075057;28;20682;-68
2022/10/23 00:33:46;;;;;;;40.85;31.02;;;13.70;99.90;;;;;;5075279;28;20044;-68
2022/10/23 00:36:14;;;;;;;42.88;31.30;;;13.60;99.90;;;;;;5086034;28;20488;-67
2022/10/23 00:38:45;;;;;;;44.50;32.25;;;13.60;99.90;;;;;;5095130;28;20074;-69
2022/10/23 00:41:17;;;;;;;43.78;31.80;;;13.60;99.90;;;;;;5094221;28;20097;-69
2022/10/23 00:44:03;;;;;;;45.15;34.10;;;13.50;99.90;;;;;;5076251;28;20055;-68
2022/10/23 00:46:32;;;;;;;42.83;33.42;;;13.50;99.90;;;;;;5094786;28;20093;-69
2022/10/23 00:49:00;;;;;;;46.53;35.30;;;13.40;99.90;;;;;;5094730;28;20046;-69
2022/10/23 00:51:31;;;;;;;51.47;36.80;;;13.40;99.90;;;;;;5076791;28;20189;-69
2022/10/23 00:54:02;;;;;;;45.70;34.67;;;13.40;99.90;;;;;;5094290;28;20043;-69
2022/10/23 00:56:31;;;;;;;43.33;32.65;;;13.40;99.90;;;;;;5096393;28;20098;-68
2022/10/23 00:58:58;;;;;;;42.38;31.58;;;13.30;99.90;;;;;;5100475;28;20099;-69
2022/10/23 01:01:26;;;;;;;45.67;32.70;;;13.40;99.90;;;;;;5082573;28;20548;-69
2022/10/23 01:03:54;;;;;;;45.10;34.47;;;13.40;99.90;;;;;;5082098;28;20044;-69
2022/10/23 01:06:33;;;;;;;51.10;34.97;;;13.40;99.90;;;;;;5088073;28;20108;-69
2022/10/23 01:09:10;;;;;;;55.13;36.80;;;13.30;99.90;;;;;;5086904;28;20074;-69
2022/10/23 01:11:42;;;;;;;53.75;35.63;;;13.20;99.90;;;;;;5077556;28;20056;-69
2022/10/23 01:14:18;;;;;;;51.80;35.17;;;13.10;99.90;;;;;;5075899;28;20052;-68
2022/10/23 01:16:53;;;;;;;51.35;34.03;;;13.00;99.90;;;;;;5075899;28;20047;-68
2022/10/23 01:19:27;;;;;;;50.47;33.55;;;12.90;99.90;;;;;;5075626;28;20384;-69
2022/10/23 01:22:09;;;;;;;48.65;32.65;;;12.90;99.90;;;;;;5076161;28;20044;-69
2022/10/23 01:24:46;;;;;;;44.15;31.70;;;12.90;99.90;;;;;;5090037;28;20059;-68
2022/10/23 01:27:22;;;;;;;48.70;34.05;;;12.90;99.90;;;;;;5076104;28;20048;-69
2022/10/23 01:29:58;;;;;;;47.20;33.22;;;13.00;99.90;;;;;;5076261;28;20052;-68
2022/10/23 01:32:38;;;;;;;51.33;33.42;;;12.80;99.90;;;;;;5078687;28;20057;-69
2022/10/23 01:35:12;;;;;;;55.50;35.90;;;12.80;99.90;;;;;;5076879;28;20131;-67
2022/10/23 01:37:43;;;;;;;97.68;41.20;;;12.70;99.90;;;;;;5076126;28;20040;-68
2022/10/23 01:40:20;;;;;;;91.55;38.75;;;12.70;99.90;;;;;;5062540;28;20084;-69
2022/10/23 01:42:53;;;;;;;61.55;38.75;;;12.70;99.90;;;;;;5052303;28;20554;-68
2022/10/23 01:45:28;;;;;;;61.35;39.20;;;12.60;99.90;;;;;;5060936;28;20459;-67
2022/10/23 01:47:57;;;;;;;50.50;34.08;;;12.60;99.90;;;;;;5052571;28;20041;-69
2022/10/23 01:50:26;;;;;;;45.35;31.65;;;12.60;99.90;;;;;;5052279;28;20049;-69
2022/10/23 01:53:00;;;;;;;42.63;30.05;;;12.50;99.90;;;;;;5052541;28;20045;-69
2022/10/23 01:55:28;;;;;;;39.00;28.17;;;12.40;99.90;;;;;;5055607;28;20508;-70
2022/10/23 01:58:00;;;;;;;54.83;33.90;;;12.30;99.90;;;;;;5064114;28;20495;-70
2022/10/23 02:00:37;;;;;;;62.40;34.58;;;12.40;99.90;;;;;;5066525;28;20086;-69
2022/10/23 02:03:06;;;;;;;57.10;35.97;;;12.40;99.90;;;;;;5061231;28;20443;-69
2022/10/23 02:05:35;;;;;;;65.85;37.50;;;12.40;99.90;;;;;;5052043;28;20132;-69
2022/10/23 02:08:05;;;;;;;79.95;38.20;;;12.30;99.90;;;;;;5052321;28;20413;-70
2022/10/23 02:10:47;;;;;;;63.75;39.33;;;12.30;99.90;;;;;;5053495;28;20036;-68
2022/10/23 02:13:24;;;;;;;59.65;38.35;;;12.30;99.90;;;;;;5051770;28;20041;-68
2022/10/23 02:15:58;;;;;;;66.00;38.15;;;12.30;99.90;;;;;;5052413;28;20048;-68
2022/10/23 02:18:34;;;;;;;55.58;34.53;;;12.30;99.90;;;;;;5053376;28;20108;-69
2022/10/23 02:21:09;;;;;;;51.38;33.25;;;12.30;99.90;;;;;;5051303;28;20051;-68
2022/10/23 02:23:43;;;;;;;52.15;32.50;;;12.30;99.90;;;;;;5052954;28;20090;-70
2022/10/23 02:26:16;;;;;;;52.35;32.97;;;12.30;99.90;;;;;;5052289;28;20068;-69
2022/10/23 02:28:52;;;;;;;55.45;33.17;;;12.40;99.90;;;;;;5051842;28;20459;-69
2022/10/23 02:31:22;;;;;;;51.70;31.85;;;12.40;99.90;;;;;;5051736;28;20111;-69
2022/10/23 02:33:49;;;;;;;52.58;33.25;;;12.40;99.90;;;;;;5052393;28;20579;-68
2022/10/23 02:36:18;;;;;;;52.30;32.08;;;12.50;99.90;;;;;;5053002;28;20094;-69
2022/10/23 02:38:46;;;;;;;51.20;32.33;;;12.40;99.90;;;;;;5051693;28;20045;-69
2022/10/23 02:41:25;;;;;;;47.70;32.38;;;12.40;99.90;;;;;;5070443;28;20503;-69
2022/10/23 02:44:04;;;;;;;45.03;30.52;;;12.40;99.90;;;;;;5072453;28;20033;-69
2022/10/23 02:46:43;;;;;;;51.80;32.65;;;12.50;99.90;;;;;;5071146;28;20139;-69
2022/10/23 02:49:14;;;;;;;52.13;34.08;;;12.40;99.90;;;;;;5071888;28;20119;-69
2022/10/23 02:51:54;;;;;;;57.25;36.72;;;12.40;99.90;;;;;;5072577;28;20052;-69
2022/10/23 02:54:42;;;;;;;59.10;37.65;;;12.40;99.90;;;;;;5075334;28;20504;-68
2022/10/23 02:57:19;;;;;;;53.30;33.42;;;12.40;99.90;;;;;;5076987;28;20052;-69
2022/10/23 02:59:59;;;;;;;51.63;32.33;;;12.40;99.90;;;;;;5079700;28;20062;-69
2022/10/23 03:02:32;;;;;;;47.90;31.38;;;12.50;99.90;;;;;;5082644;28;20052;-69
2022/10/23 03:05:01;;;;;;;46.53;31.63;;;12.40;99.90;;;;;;5075233;28;20158;-69
2022/10/23 03:07:29;;;;;;;45.47;31.95;;;12.30;99.90;;;;;;5075086;28;20121;-68
2022/10/23 03:10:04;;;;;;;;;;;12.30;99.90;;;;;;5075769;28;20049;-69
2022/10/23 03:12:33;;;;;;;46.28;30.27;;;12.40;99.90;;;;;;5074752;28;20020;-68
2022/10/23 03:15:01;;;;;;;46.90;30.98;;;12.40;99.90;;;;;;5074407;28;20400;-68
2022/10/23 03:17:28;;;;;;;48.70;31.58;;;12.50;99.90;;;;;;5074508;28;20048;-69
2022/10/23 03:19:58;;;;;;;47.78;29.85;;;12.50;99.90;;;;;;5074713;28;20072;-68
2022/10/23 03:22:26;;;;;;;43.08;29.13;;;12.50;99.90;;;;;;5074331;28;20041;-68
2022/10/23 03:24:53;;;;;;;46.55;30.45;;;12.50;99.90;;;;;;5075072;28;20488;-69
2022/10/23 03:27:20;;;;;;;47.53;30.02;;;12.60;99.90;;;;;;5074427;28;20044;-69
2022/10/23 03:29:47;;;;;;;45.00;30.92;;;12.60;99.90;;;;;;5076218;28;20044;-68
2022/10/23 03:32:17;;;;;;;47.17;30.63;;;12.70;99.90;;;;;;5074431;28;20056;-67
2022/10/23 03:34:45;;;;;;;46.13;31.13;;;12.70;99.90;;;;;;5074288;28;20415;-67
2022/10/23 03:37:12;;;;;;;48.60;32.53;;;12.80;99.90;;;;;;5074938;28;20044;-69
2022/10/23 03:39:39;;;;;;;45.17;30.10;;;12.90;99.90;;;;;;5074531;28;20059;-68
2022/10/23 03:42:07;;;;;;;46.90;31.45;;;12.80;99.90;;;;;;5075431;28;20098;-67
2022/10/23 03:44:34;;;;;;;49.33;31.02;;;12.80;99.90;;;;;;5071464;28;20065;-69
2022/10/23 03:47:02;;;;;;;48.33;30.38;;;12.90;99.90;;;;;;5054808;28;20079;-67
2022/10/23 03:49:31;;;;;;;49.20;30.50;;;12.90;99.90;;;;;;5061004;28;20044;-68
2022/10/23 03:52:04;;;;;;;46.40;29.90;;;12.90;99.90;;;;;;5064525;28;20049;-67
2022/10/23 03:54:32;;;;;;;44.70;29.83;;;12.80;99.90;;;;;;5069195;28;20098;-68
2022/10/23 03:57:00;;;;;;;46.33;29.67;;;12.80;99.90;;;;;;5074184;28;20114;-68
2022/10/23 03:59:27;;;;;;;48.53;31.92;;;12.70;99.90;;;;;;5075504;28;20048;-69
2022/10/23 04:01:55;;;;;;;45.72;30.88;;;12.70;99.90;;;;;;5075392;28;20545;-68
2022/10/23 04:04:24;;;;;;;48.83;29.77;;;12.80;99.90;;;;;;5074079;28;20048;-69
2022/10/23 04:06:53;;;;;;;43.75;28.92;;;12.80;99.90;;;;;;5074455;28;20095;-69
2022/10/23 04:09:21;;;;;;;49.83;30.38;;;12.80;99.90;;;;;;5073810;28;20044;-66
2022/10/23 04:11:48;;;;;;;43.88;29.92;;;12.80;99.90;;;;;;5074206;28;20041;-67
2022/10/23 04:14:15;;;;;;;46.42;29.90;;;12.80;99.90;;;;;;5074930;28;20064;-69
2022/10/23 04:16:42;;;;;;;49.95;31.73;;;12.80;99.90;;;;;;5075640;28;20446;-68
2022/10/23 04:19:10;;;;;;;51.60;33.72;;;12.80;99.90;;;;;;5075786;28;20052;-69
2022/10/23 04:21:37;;;;;;;54.22;35.80;;;12.80;99.90;;;;;;5077170;28;20094;-69
2022/10/23 04:24:06;;;;;;;50.42;33.38;;;12.80;99.90;;;;;;5074921;28;20089;-68
2022/10/23 04:26:34;;;;;;;49.25;32.83;;;12.80;99.90;;;;;;5075380;28;20036;-69
2022/10/23 04:29:01;;;;;;;48.10;32.38;;;12.70;99.90;;;;;;5073599;28;20082;-69
2022/10/23 04:31:30;;;;;;;50.30;32.10;;;12.70;99.90;;;;;;5073422;28;20055;-69
2022/10/23 04:33:57;;;;;;;43.20;30.40;;;12.80;99.90;;;;;;5075911;28;20041;-69
2022/10/23 04:36:31;;;;;;;45.33;29.63;;;12.80;99.90;;;;;;5074964;28;20044;-69
2022/10/23 04:39:08;;;;;;;45.40;30.47;;;12.70;99.90;;;;;;5076290;28;20040;-69
2022/10/23 04:41:37;;;;;;;43.97;29.40;;;12.80;99.90;;;;;;5076658;28;20300;-69
2022/10/23 04:44:05;;;;;;;41.30;28.13;;;12.80;99.90;;;;;;5076583;28;20472;-69
2022/10/23 04:46:36;;;;;;;41.15;27.38;;;12.80;99.90;;;;;;5077951;28;20097;-69
2022/10/23 04:49:05;;;;;;;40.83;27.20;;;12.70;99.90;;;;;;5076619;28;20143;-69
2022/10/23 04:52:10;;;;;;;36.45;27.50;;;12.70;99.90;;;;;;5074594;28;20129;-67
2022/10/23 04:54:51;;;;;;;39.45;26.42;;;12.60;99.90;;;;;;5073822;28;20048;-68
2022/10/23 04:57:32;;;;;;;41.35;26.80;;;12.60;99.90;;;;;;5076817;28;20380;-69
2022/10/23 05:00:09;;;;;;;39.05;24.88;;;12.60;99.90;;;;;;5076764;28;20048;-69
2022/10/23 05:02:44;;;;;;;39.22;25.92;;;12.50;99.90;;;;;;5077293;28;20430;-69
2022/10/23 05:05:14;;;;;;;35.17;25.40;;;12.40;99.90;;;;;;5076829;28;20044;-69
2022/10/23 05:08:02;;;;;;;41.72;27.13;;;12.50;99.90;;;;;;5094570;28;20071;-68
2022/10/23 05:10:49;;;;;;;42.92;27.73;;;12.50;99.90;;;;;;5075964;28;20040;-69
2022/10/23 05:13:18;;;;;;;46.40;28.63;;;12.40;99.90;;;;;;5076378;28;20041;-67
2022/10/23 05:15:47;;;;;;;42.38;28.67;;;12.50;99.90;;;;;;5075877;28;20444;-67
2022/10/23 05:18:18;;;;;;;41.53;28.40;;;12.50;99.90;;;;;;5074750;28;20040;-67
2022/10/23 05:20:49;;;;;;;50.13;28.83;;;12.50;99.90;;;;;;5076787;28;20044;-69
2022/10/23 05:23:20;;;;;;;51.30;28.70;;;12.60;99.90;;;;;;5095160;28;20044;-68
2022/10/23 05:25:58;;;;;;;82.93;32.58;;;12.60;99.90;;;;;;5065527;28;20127;-69
2022/10/23 05:28:25;;;;;;;54.72;30.80;;;12.60;99.90;;;;;;5077469;28;20048;-69
2022/10/23 05:30:52;;;;;;;60.45;31.83;;;12.70;99.90;;;;;;5077265;28;20044;-69
2022/10/23 05:33:24;;;;;;;56.53;31.00;;;12.80;99.90;;;;;;5085556;28;20047;-69
2022/10/23 05:35:52;;;;;;;63.55;33.08;;;12.80;99.90;;;;;;5082074;28;20048;-69
2022/10/23 05:38:21;;;;;;;63.70;32.13;;;12.80;99.90;;;;;;5081907;28;20047;-69
2022/10/23 05:40:51;;;;;;;75.13;35.17;;;12.90;99.90;;;;;;5082365;28;20090;-69
2022/10/23 05:43:21;;;;;;;75.72;37.60;;;12.80;99.90;;;;;;5081464;28;20048;-68
2022/10/23 05:46:09;;;;;;;67.65;33.80;;;12.90;99.90;;;;;;5084186;28;20386;-69
2022/10/23 05:48:55;;;;;;;69.50;33.83;;;13.00;99.90;;;;;;5094385;28;20411;-69
2022/10/23 05:51:25;;;;;;;67.25;34.35;;;13.10;99.90;;;;;;5093307;28;20052;-68
2022/10/23 05:54:09;;;;;;;63.85;33.63;;;13.10;99.90;;;;;;5075147;28;20089;-70
2022/10/23 05:56:48;;;;;;;66.25;33.70;;;13.20;99.90;;;;;;5075748;28;20071;-69
2022/10/23 05:59:40;;;;;;;72.60;35.10;;;13.30;99.90;;;;;;5092016;28;20047;-69
2022/10/23 06:02:22;;;;;;;78.63;35.85;;;13.20;99.90;;;;;;5075548;28;20071;-68
2022/10/23 06:04:57;;;;;;;76.35;37.20;;;13.30;99.90;;;;;;5075086;28;20044;-69
2022/10/23 06:08:03;;;;;;;105.63;39.35;;;13.40;99.90;;;;;;5031479;28;20102;-69
2022/10/23 06:10:31;;;;;;;139.75;38.95;;;13.40;99.90;;;;;;5024589;28;20151;-69
2022/10/23 06:13:02;;;;;;;82.30;34.72;;;13.40;99.90;;;;;;5055060;28;20040;-69
2022/10/23 06:15:31;;;;;;;77.45;37.83;;;13.50;99.90;;;;;;5074905;28;20097;-68
2022/10/23 06:18:08;;;;;;;84.05;40.92;;;13.50;99.90;;;;;;5090519;28;20068;-69
2022/10/23 06:20:39;;;;;;;70.53;37.22;;;13.50;99.90;;;;;;5075522;28;20048;-69
2022/10/23 06:23:14;;;;;;;68.65;35.88;;;13.60;99.90;;;;;;5074105;28;20044;-68
2022/10/23 06:26:00;;;;;;;77.30;37.28;;;13.70;99.90;;;;;;5096200;28;20051;-70
2022/10/23 06:28:40;;;;;;;77.57;38.95;;;13.70;99.90;;;;;;5099906;28;20048;-69
2022/10/23 06:31:11;;;;;;;74.88;38.40;;;13.90;99.90;;;;;;5082486;28;20139;-69
2022/10/23 06:33:40;;;;;;;66.68;35.15;;;13.90;99.90;;;;;;5082654;28;20404;-68
2022/10/23 06:36:10;;;;;;;66.07;33.47;;;14.00;99.90;;;;;;5082442;28;20089;-68
2022/10/23 06:38:40;;;;;;;66.10;34.80;;;14.00;99.90;;;;;;5082240;28;20106;-69
2022/10/23 06:41:13;;;;;;;65.13;33.55;;;14.10;99.90;;;;;;5078593;28;20055;-69
2022/10/23 06:43:41;;;;;;;53.08;28.20;;;14.20;99.90;;;;;;5078380;28;20072;-69
2022/10/23 06:46:28;;;;;;;54.13;27.88;;;14.20;99.90;;;;;;5078440;28;20040;-68
2022/10/23 06:49:21;;;;;;;49.10;27.17;;;14.20;99.90;;;;;;5063887;28;20094;-69
2022/10/23 06:51:50;;;;;;;44.67;24.85;;;14.40;99.90;;;;;;5078364;28;20559;-68
2022/10/23 06:54:21;;;;;;;42.83;25.02;;;14.50;99.90;;;;;;5078249;28;20045;-68
2022/10/23 06:57:08;;;;;;;40.38;23.85;;;14.70;99.90;;;;;;5079679;28;20061;-69
2022/10/23 06:59:43;;;;;;;39.95;23.60;;;14.90;99.90;;;;;;5078559;28;20098;-69
2022/10/23 07:02:13;;;;;;;39.92;25.88;;;15.00;99.90;;;;;;5078337;28;20049;-68
2022/10/23 07:04:40;;;;;;;44.90;27.65;;;15.00;99.90;;;;;;5079234;28;20051;-68
2022/10/23 07:07:13;;;;;;;39.78;26.60;;;15.00;99.90;;;;;;5079959;28;20159;-69
2022/10/23 07:09:46;;;;;;;45.35;28.85;;;15.00;99.90;;;;;;5083751;28;20101;-68
2022/10/23 07:12:28;;;;;;;42.78;28.63;;;14.90;99.90;;;;;;5098484;28;20075;-68
2022/10/23 07:15:31;;;;;;;41.88;28.30;;;15.00;99.90;;;;;;5076760;28;20051;-69
2022/10/23 07:18:00;;;;;;;40.28;27.13;;;15.10;99.90;;;;;;5078867;28;20048;-68
2022/10/23 07:20:40;;;;;;;37.88;23.13;;;15.10;99.90;;;;;;5078804;28;20044;-69
2022/10/23 07:23:09;;;;;;;35.92;24.00;;;15.30;99.90;;;;;;5078367;28;20087;-69
2022/10/23 07:25:38;;;;;;;37.85;25.38;;;15.50;99.90;;;;;;5077937;28;20045;-69
2022/10/23 07:28:06;;;;;;;43.35;27.27;;;15.70;99.90;;;;;;5077909;28;20491;-69
2022/10/23 07:30:34;;;;;;;39.75;27.77;;;15.90;99.90;;;;;;5077942;28;20052;-68
2022/10/23 07:33:04;;;;;;;35.28;26.13;;;16.20;99.90;;;;;;5078053;28;20086;-67
2022/10/23 07:35:39;;;;;;;37.22;25.92;;;16.30;99.90;;;;;;5085951;28;20398;-66
2022/10/23 07:38:12;;;;;;;46.20;31.25;;;16.50;99.90;;;;;;5080585;28;20095;-67
2022/10/23 07:40:44;;;;;;;46.97;30.98;;;16.60;99.90;;;;;;5075900;28;20454;-67
2022/10/23 07:43:16;;;;;;;45.90;30.00;;;16.90;99.90;;;;;;5075042;28;20044;-66
2022/10/23 07:45:43;;;;;;;47.63;30.88;;;17.30;99.90;;;;;;5074759;28;20048;-66
2022/10/23 07:48:22;;;;;;;44.45;30.40;;;17.20;99.90;;;;;;5075452;28;20052;-68
2022/10/23 07:51:01;;;;;;;38.42;28.33;;;17.30;99.90;;;;;;5076803;28;20067;-66
2022/10/23 07:53:30;;;;;;;41.47;28.55;;;17.00;99.90;;;;;;5074184;28;20048;-66
2022/10/23 07:56:14;;;;;;;45.30;30.58;;;16.80;99.90;;;;;;5064377;28;20040;-68
2022/10/23 07:59:00;;;;;;;43.08;29.55;;;16.80;99.90;;;;;;5036405;28;20134;-67
2022/10/23 08:01:31;;;;;;;42.40;29.65;;;17.00;99.90;;;;;;5035100;28;20398;-66
2022/10/23 08:04:00;;;;;;;37.20;27.23;;;17.10;99.90;;;;;;5064916;28;20055;-67
2022/10/23 08:06:29;;;;;;;36.50;27.48;;;17.30;99.90;;;;;;5076012;28;20101;-67
2022/10/23 08:08:57;;;;;;;38.03;28.67;;;17.10;99.90;;;;;;5074149;28;20462;-67
2022/10/23 08:11:27;;;;;;;34.85;25.77;;;17.20;99.90;;;;;;5074024;28;20075;-67
2022/10/23 08:13:57;;;;;;;35.05;26.92;;;17.30;99.90;;;;;;5033502;28;20428;-66
2022/10/23 08:16:28;;;;;;;32.72;24.45;;;17.60;99.90;;;;;;5034283;28;20054;-66
2022/10/23 08:19:06;;;;;;;37.28;25.40;;;17.90;99.90;;;;;;5035510;28;20049;-66
2022/10/23 08:21:36;;;;;;;34.85;25.13;;;18.10;99.90;;;;;;5034036;28;20057;-68
2022/10/23 08:24:04;;;;;;;35.88;26.25;;;18.20;99.90;;;;;;5033353;28;20416;-67
2022/10/23 08:26:32;;;;;;;32.88;24.38;;;18.30;99.90;;;;;;5035589;28;20481;-66
2022/10/23 08:29:00;;;;;;;31.48;22.55;;;18.30;99.90;;;;;;5043919;28;20541;-67
2022/10/23 08:31:29;;;;;;;26.67;20.83;;;18.30;99.90;;;;;;5075665;28;20396;-67
2022/10/23 08:34:15;;;;;;;28.65;21.80;;;18.20;99.90;;;;;;5074801;28;20049;-66
2022/10/23 08:36:44;;;;;;;29.75;21.50;;;18.20;99.90;;;;;;5074704;28;20485;-66
2022/10/23 08:39:12;;;;;;;28.27;21.63;;;18.20;99.90;;;;;;5079556;28;20408;-66
2022/10/23 08:41:50;;;;;;;27.23;21.42;;;18.50;99.90;;;;;;5098068;28;20104;-66
2022/10/23 08:44:24;;;;;;;28.92;22.52;;;18.60;99.90;;;;;;5115593;28;20499;-67
2022/10/23 08:47:00;;;;;;;34.30;23.77;;;18.60;99.90;;;;;;5097799;28;20044;-66
2022/10/23 08:49:50;;;;;;;32.92;24.40;;;18.60;99.90;;;;;;5115217;28;20153;-66
2022/10/23 08:52:24;;;;;;;29.40;21.38;;;18.70;99.90;;;;;;5098147;28;20089;-65
2022/10/23 08:55:07;;;;;;;27.45;19.33;;;18.70;99.90;;;;;;5097472;28;20093;-65
2022/10/23 08:57:42;;;;;;;25.10;18.17;;;18.70;99.90;;;;;;5115487;28;20040;-68
2022/10/23 09:00:14;;;;;;;26.20;19.80;;;18.80;99.90;;;;;;5115699;28;20046;-66
2022/10/23 09:02:44;;;;;;;24.83;18.45;;;18.90;99.90;;;;;;5114838;28;20039;-65
2022/10/23 09:05:16;;;;;;;26.90;18.95;;;19.00;99.90;;;;;;5094561;28;20085;-66
2022/10/23 09:07:55;;;;;;;23.58;18.13;;;19.20;99.90;;;;;;5093828;28;20039;-66
2022/10/23 09:10:37;;;;;;;24.33;17.27;;;19.40;99.90;;;;;;5076019;28;20075;-67
2022/10/23 09:13:30;;;;;;;22.98;15.73;;;19.60;99.90;;;;;;5094105;28;20036;-66
2022/10/23 09:16:06;;;;;;;21.77;16.63;;;19.70;99.90;;;;;;5074242;28;20439;-67
2022/10/23 09:18:34;;;;;;;;;;;19.90;99.90;;;;;;5074652;28;20036;-66
2022/10/23 09:21:08;;;;;;;18.05;14.40;;;20.00;99.90;;;;;;5073290;28;19920;-67
2022/10/23 09:23:35;;;;;;;16.38;12.80;;;20.00;99.90;;;;;;5073992;28;20563;-68
2022/10/23 09:26:10;;;;;;;20.35;14.77;;;20.00;99.90;;;;;;5055457;28;20047;-67
2022/10/23 09:28:48;;;;;;;21.02;16.45;;;20.00;99.90;;;;;;5073809;28;20051;-67
2022/10/23 09:31:17;;;;;;;26.20;17.83;;;20.20;99.90;;;;;;5056425;28;20072;-66
2022/10/23 09:33:55;;;;;;;25.90;19.25;;;20.40;99.90;;;;;;5075047;28;20475;-66
2022/10/23 09:36:26;;;;;;;26.58;19.42;;;20.50;99.90;;;;;;5074158;28;20559;-66
2022/10/23 09:38:55;;;;;;;31.95;24.80;;;20.60;99.90;;;;;;5074113;28;20086;-66
2022/10/23 09:41:26;;;;;;;22.90;15.10;;;20.70;99.90;;;;;;5074166;28;20056;-67
2022/10/23 09:44:01;;;;;;;20.92;14.35;;;20.80;99.90;;;;;;5073403;28;20036;-65
2022/10/23 09:46:38;;;;;;;19.63;13.80;;;20.70;99.90;;;;;;5055862;28;20503;-67
2022/10/23 09:49:06;;;;;;;18.08;13.93;;;21.00;99.90;;;;;;5055845;28;20052;-67
2022/10/23 09:51:34;;;;;;;19.13;15.13;;;21.20;99.90;;;;;;5073400;28;20036;-67
2022/10/23 09:54:02;;;;;;;21.67;15.15;;;21.30;99.90;;;;;;5073723;28;20511;-68
2022/10/23 09:56:33;;;;;;;20.38;15.35;;;21.40;99.90;;;;;;5073915;28;20043;-68
2022/10/23 09:59:02;;;;;;;27.08;16.35;;;21.40;99.90;;;;;;5075859;28;20139;-67
2022/10/23 10:01:32;;;;;;;19.75;15.18;;;21.40;99.90;;;;;;5075118;28;20048;-67
2022/10/23 10:04:33;;;;;;;20.70;15.48;;;21.50;99.90;;;;;;5070607;28;20057;-68
2022/10/23 10:07:04;;;;;;;22.42;15.68;;;21.50;99.90;;;;;;5073725;28;20064;-66
2022/10/23 10:09:32;;;;;;;19.55;14.57;;;21.50;99.90;;;;;;5055911;28;20052;-67
2022/10/23 10:12:17;;;;;;;26.77;18.10;;;21.60;99.90;;;;;;5073522;28;20522;-67
2022/10/23 10:14:53;;;;;;;25.67;18.02;;;21.70;99.90;;;;;;5073599;28;20567;-66
2022/10/23 10:17:30;;;;;;;24.95;14.52;;;21.90;99.90;;;;;;5073764;28;20043;-66
2022/10/23 10:20:14;;;;;;;21.45;14.15;;;22.00;99.90;;;;;;5077234;28;20115;-67
2022/10/23 10:22:52;;;;;;;21.05;15.23;;;22.10;99.90;;;;;;5103287;28;20077;-67
2022/10/23 10:25:28;;;;;;;24.00;15.77;;;22.30;99.90;;;;;;5096340;28;20079;-70
2022/10/23 10:28:01;;;;;;;;;;;22.60;99.90;;;;;;5094103;28;20078;-67
2022/10/23 10:30:38;;;;;;;22.70;15.20;;;22.80;99.90;;;;;;5073631;28;19964;-68
2022/10/23 10:33:14;;;;;;;24.38;15.25;;;23.10;99.90;;;;;;5079000;28;20476;-67
2022/10/23 10:35:46;;;;;;;18.33;14.10;;;23.20;99.90;;;;;;5093788;28;20089;-67
2022/10/23 10:38:41;;;;;;;23.65;14.55;;;23.30;99.90;;;;;;5075147;28;20070;-68
2022/10/23 10:41:35;;;;;;;18.63;13.25;;;23.20;99.90;;;;;;5093556;28;20075;-67
2022/10/23 10:44:31;;;;;;;19.10;12.70;;;23.10;99.90;;;;;;5092800;28;20479;-68
2022/10/23 10:47:03;;;;;;;20.40;14.93;;;23.10;99.90;;;;;;5075323;28;20040;-66
2022/10/23 10:49:40;;;;;;;19.73;10.80;;;23.20;99.90;;;;;;5077037;28;20438;-67
2022/10/23 10:52:24;;;;;;;21.05;13.23;;;23.10;99.90;;;;;;5078486;28;20384;-67
2022/10/23 10:55:02;;;;;;;13.85;10.90;;;23.10;99.90;;;;;;5076295;28;20044;-68
2022/10/23 10:57:33;;;;;;;24.52;12.48;;;23.20;99.90;;;;;;5093319;28;20472;-69
2022/10/23 11:00:05;;;;;;;23.95;11.70;;;23.00;99.90;;;;;;5094311;28;20398;-68
2022/10/23 11:02:40;;;;;;;26.48;14.65;;;23.10;99.90;;;;;;5072528;28;20098;-67
2022/10/23 11:05:16;;;;;;;28.23;12.98;;;23.30;99.90;;;;;;5073984;28;20428;-68
2022/10/23 11:07:53;;;;;;;20.88;12.73;;;23.20;99.90;;;;;;5073088;28;20063;-68
2022/10/23 11:10:22;;;;;;;22.90;13.85;;;23.20;99.90;;;;;;5055217;28;20083;-68
2022/10/23 11:12:50;;;;;;;20.20;12.23;;;23.10;99.90;;;;;;5073959;28;20044;-68
2022/10/23 11:15:22;;;;;;;25.63;12.80;;;23.00;99.90;;;;;;5077099;28;20502;-67
2022/10/23 11:17:54;;;;;;;29.08;13.25;;;23.00;99.90;;;;;;5077393;28;20061;-67
2022/10/23 11:20:45;;;;;;;22.85;14.40;;;23.10;99.90;;;;;;5077424;28;20102;-68
2022/10/23 11:23:38;;;;;;;23.92;12.95;;;23.20;99.90;;;;;;5078763;28;20036;-68
2022/10/23 11:26:23;;;;;;;27.02;17.10;;;23.20;99.90;;;;;;5083962;28;20068;-67
2022/10/23 11:29:14;;;;;;;23.08;12.68;;;23.30;99.90;;;;;;5083792;28;20053;-68
2022/10/23 11:31:49;;;;;;;26.77;13.77;;;23.40;99.90;;;;;;5076833;28;20051;-68
2022/10/23 11:34:46;;;;;;;25.10;13.90;;;23.60;99.90;;;;;;5076996;28;20480;-67
2022/10/23 11:37:17;;;;;;;23.02;13.48;;;23.60;99.90;;;;;;5058872;28;20151;-68
2022/10/23 11:40:00;;;;;;;20.73;11.38;;;23.60;99.80;;;;;;5054971;28;20249;-69
2022/10/23 11:42:45;;;;;;;23.80;11.45;;;23.60;99.40;;;;;;5057248;28;20051;-68
2022/10/23 11:45:27;;;;;;;22.55;14.57;;;23.60;99.30;;;;;;5056875;28;20048;-68
2022/10/23 11:47:57;;;;;;;29.25;17.50;;;23.50;99.90;;;;;;5056517;28;20373;-68
2022/10/23 11:50:29;;;;;;;29.77;19.90;;;23.60;99.90;;;;;;5054817;28;20126;-67
2022/10/23 11:53:00;;;;;;;30.55;17.58;;;23.70;99.90;;;;;;5055971;28;20068;-68
2022/10/23 11:55:29;;;;;;;37.10;15.80;;;23.70;99.90;;;;;;5056933;28;20045;-68
2022/10/23 11:58:30;;;;;;;27.98;15.85;;;23.60;99.90;;;;;;5054699;28;20037;-68
2022/10/23 12:01:04;;;;;;;24.50;13.57;;;23.60;99.90;;;;;;5054727;28;20496;-67
2022/10/23 12:03:41;;;;;;;25.13;13.68;;;23.60;99.90;;;;;;5055932;28;20041;-69
2022/10/23 12:06:22;;;;;;;22.30;13.68;;;23.60;99.90;;;;;;5056532;28;20128;-68
2022/10/23 12:08:56;;;;;;;17.70;10.48;;;23.60;99.90;;;;;;5070780;28;20071;-69
2022/10/23 12:11:39;;;;;;;23.23;10.75;;;23.70;99.00;;;;;;5077674;28;20048;-68
2022/10/23 12:14:26;;;;;;;19.23;10.68;;;23.80;97.30;;;;;;5082103;28;20098;-67
2022/10/23 12:16:53;;;;;;;21.77;10.45;;;23.90;96.60;;;;;;5079511;28;20044;-68
2022/10/23 12:19:23;;;;;;;21.40;10.73;;;24.00;96.30;;;;;;5076348;28;20040;-67
2022/10/23 12:21:52;;;;;;;17.40;10.30;;;23.80;96.10;;;;;;5076137;28;20040;-69
2022/10/23 12:24:38;;;;;;;22.10;11.55;;;23.90;96.10;;;;;;5076514;28;20117;-68
2022/10/23 12:27:19;;;;;;;18.83;10.88;;;23.90;96.20;;;;;;5081163;28;20071;-68
2022/10/23 12:30:12;;;;;;;25.92;11.35;;;23.90;96.40;;;;;;5078596;28;20381;-68
2022/10/23 12:33:09;;;;;;;26.38;12.25;;;24.10;95.50;;;;;;5075089;28;20103;-68
2022/10/23 12:36:11;;;;;;;24.15;13.38;;;24.30;95.30;;;;;;5074845;28;20139;-68
2022/10/23 12:38:44;;;;;;;18.58;11.57;;;24.50;93.90;;;;;;5081880;28;20090;-68
2022/10/23 12:41:15;;;;;;;19.98;10.55;;;24.40;94.10;;;;;;5078641;28;20049;-69
2022/10/23 12:43:50;;;;;;;17.98;10.55;;;24.40;94.10;;;;;;5074771;28;20045;-68
2022/10/23 12:46:33;;;;;;;21.00;12.05;;;24.40;93.60;;;;;;5085545;28;20048;-67
2022/10/23 12:49:03;;;;;;;19.73;11.57;;;24.30;93.90;;;;;;5087274;28;20376;-67
2022/10/23 12:51:33;;;;;;;19.65;10.63;;;24.30;93.90;;;;;;5083727;28;20438;-68
2022/10/23 12:54:01;;;;;;;19.00;10.82;;;24.20;93.50;;;;;;5082585;28;20499;-68
2022/10/23 12:56:35;;;;;;;18.45;11.07;;;24.20;93.40;;;;;;5083290;28;20056;-68
2022/10/23 12:59:04;;;;;;;22.42;11.57;;;24.20;93.30;;;;;;5074988;28;20121;-68
2022/10/23 13:01:36;;;;;;;18.67;11.70;;;24.20;93.70;;;;;;5069171;28;20040;-68
2022/10/23 13:04:11;;;;;;;20.05;11.05;;;24.30;93.60;;;;;;5079676;28;20041;-68